Time;durP1;ratioP1;P1;durP2;ratioP2;P2;SDS_P1;SDS_P2;PMS_P1;PMS_P2;Temp;Humidity;BMP_temperature;BMP_pressure;BME280_temperature;BME280_humidity;BME280_pressure;Samples;Min_cycle;Max_cycle;Signal;HPM_P1;HPM_P2
2023/09/10 00:01:29;;;;;;;0.00;0.00;;;21.70;65.60;;;;;;5040738;28;20064;-78
2023/09/10 00:03:56;;;;;;;0.00;0.00;;;21.60;66.10;;;;;;5042580;28;20044;-78
2023/09/10 00:06:21;;;;;;;0.00;0.00;;;21.60;66.30;;;;;;5041615;28;20455;-78
2023/09/10 00:08:47;;;;;;;0.00;0.00;;;21.70;66.30;;;;;;5043279;28;20039;-78
2023/09/10 00:11:13;;;;;;;0.00;0.00;;;21.50;66.70;;;;;;5043943;28;20036;-78
2023/09/10 00:13:39;;;;;;;0.00;0.00;;;21.40;67.00;;;;;;5043435;28;20945;-78
2023/09/10 00:16:04;;;;;;;0.00;0.00;;;21.40;67.60;;;;;;5043397;28;20094;-78
2023/09/10 00:18:30;;;;;;;0.00;0.00;;;21.40;67.60;;;;;;5043823;28;20040;-78
2023/09/10 00:20:56;;;;;;;0.00;0.00;;;21.40;67.40;;;;;;5043770;28;20567;-78
2023/09/10 00:23:22;;;;;;;0.00;0.00;;;21.40;66.80;;;;;;5046379;28;20029;-78
2023/09/10 00:25:47;;;;;;;0.00;0.00;;;21.40;66.70;;;;;;5044262;28;20033;-78
2023/09/10 00:28:13;;;;;;;0.00;0.00;;;21.30;66.50;;;;;;5043617;28;20032;-78
2023/09/10 00:30:39;;;;;;;0.00;0.00;;;21.40;66.50;;;;;;5043678;28;20028;-78
2023/09/10 00:33:05;;;;;;;0.00;0.00;;;21.30;66.80;;;;;;5043015;28;20043;-78
2023/09/10 00:35:30;;;;;;;0.00;0.00;;;21.30;67.10;;;;;;5041210;28;20167;-78
2023/09/10 00:37:56;;;;;;;0.00;0.00;;;21.10;68.00;;;;;;5042091;28;20040;-78
2023/09/10 00:40:22;;;;;;;0.00;0.00;;;21.10;68.50;;;;;;5043251;28;20087;-78
2023/09/10 00:42:48;;;;;;;0.00;0.00;;;21.00;68.90;;;;;;5043481;28;20025;-78
2023/09/10 00:45:13;;;;;;;0.00;0.00;;;21.00;69.10;;;;;;5043462;28;20275;-77
2023/09/10 00:47:45;;;;;;;0.00;0.00;;;21.00;69.20;;;;;;5043815;28;20028;-78
2023/09/10 00:50:12;;;;;;;0.10;0.10;;;21.00;69.20;;;;;;5043376;28;20037;-78
2023/09/10 00:52:41;;;;;;;;;;;21.00;69.20;;;;;;5044191;28;20021;-78
2023/09/10 00:55:07;;;;;;;0.00;0.00;;;21.00;69.10;;;;;;5043072;28;19920;-78
2023/09/10 00:57:33;;;;;;;0.00;0.00;;;21.10;69.50;;;;;;5042771;28;20773;-77
2023/09/10 00:59:59;;;;;;;0.00;0.00;;;21.10;69.80;;;;;;5043131;28;20036;-78
2023/09/10 01:02:26;;;;;;;0.00;0.00;;;20.90;70.10;;;;;;5042797;28;20124;-77
2023/09/10 01:04:51;;;;;;;0.00;0.00;;;20.80;70.50;;;;;;5042420;28;20080;-78
2023/09/10 01:07:17;;;;;;;0.00;0.00;;;20.80;71.50;;;;;;5038619;28;20100;-77
2023/09/10 01:09:43;;;;;;;0.00;0.00;;;20.80;71.20;;;;;;5039753;28;20051;-78
2023/09/10 01:12:35;;;;;;;0.10;0.10;;;20.70;71.60;;;;;;5040659;28;20021;-78
2023/09/10 01:15:08;;;;;;;0.10;0.10;;;20.60;72.30;;;;;;5039205;28;20654;-78
2023/09/10 01:18:02;;;;;;;0.00;0.00;;;20.50;73.00;;;;;;5038409;28;20028;-77
2023/09/10 01:20:49;;;;;;;0.00;0.00;;;20.30;74.00;;;;;;5038402;28;20028;-77
2023/09/10 01:23:25;;;;;;;0.00;0.00;;;20.20;74.80;;;;;;5036462;28;20078;-78
2023/09/10 01:25:51;;;;;;;0.00;0.00;;;20.10;76.10;;;;;;5035548;28;20820;-78
2023/09/10 01:28:17;;;;;;;0.00;0.00;;;20.00;76.80;;;;;;5039895;28;20040;-78
2023/09/10 01:30:43;;;;;;;0.00;0.00;;;19.80;77.70;;;;;;5039038;28;21074;-78
2023/09/10 01:33:20;;;;;;;0.00;0.00;;;19.70;78.40;;;;;;5039876;28;20082;-78
2023/09/10 01:35:51;;;;;;;0.00;0.00;;;19.60;79.30;;;;;;5038309;28;20057;-78
2023/09/10 01:38:26;;;;;;;0.00;0.00;;;19.60;80.00;;;;;;5039883;28;20021;-78
2023/09/10 01:41:09;;;;;;;0.00;0.00;;;19.60;80.60;;;;;;5036573;28;20808;-78
2023/09/10 01:43:35;;;;;;;0.00;0.00;;;19.60;80.60;;;;;;5038577;28;20029;-77
2023/09/10 01:46:03;;;;;;;0.10;0.10;;;19.50;81.20;;;;;;5039350;28;20110;-78
2023/09/10 01:48:30;;;;;;;0.20;0.20;;;19.60;81.40;;;;;;5036265;28;20036;-77
2023/09/10 01:50:55;;;;;;;0.38;0.35;;;19.60;81.30;;;;;;5040868;28;20021;-77
2023/09/10 01:53:21;;;;;;;0.00;0.00;;;19.60;81.50;;;;;;5039413;28;20032;-78
2023/09/10 01:55:47;;;;;;;0.00;0.00;;;19.60;81.50;;;;;;5039607;28;20037;-77
2023/09/10 01:58:15;;;;;;;0.00;0.00;;;19.50;81.70;;;;;;5039668;28;20097;-78
2023/09/10 02:00:47;;;;;;;0.68;0.63;;;19.40;82.40;;;;;;5040681;28;20025;-77
2023/09/10 02:03:13;;;;;;;0.00;0.00;;;19.40;83.20;;;;;;5040050;28;20112;-78
2023/09/10 02:05:41;;;;;;;0.00;0.00;;;19.20;84.20;;;;;;5040307;28;20028;-78
2023/09/10 02:08:07;;;;;;;0.00;0.00;;;19.10;85.00;;;;;;5039573;28;20024;-78
2023/09/10 02:10:33;;;;;;;0.00;0.00;;;19.10;85.70;;;;;;5039709;28;20036;-77
2023/09/10 02:12:59;;;;;;;0.00;0.00;;;19.00;86.70;;;;;;5039024;28;20161;-77
2023/09/10 02:15:25;;;;;;;0.00;0.00;;;18.90;87.00;;;;;;5039743;28;20431;-78
2023/09/10 02:17:52;;;;;;;;;;;18.90;87.30;;;;;;5048352;28;20029;-78
2023/09/10 02:20:18;;;;;;;0.00;0.00;;;18.80;87.60;;;;;;5042194;28;19905;-78
2023/09/10 02:22:44;;;;;;;0.00;0.00;;;18.90;87.60;;;;;;5040562;28;20110;-78
2023/09/10 02:25:10;;;;;;;0.00;0.00;;;18.80;88.00;;;;;;5041748;28;20509;-78
2023/09/10 02:27:36;;;;;;;3.57;2.60;;;18.80;88.40;;;;;;5041493;28;20029;-78
2023/09/10 02:30:06;;;;;;;0.20;0.20;;;18.70;89.10;;;;;;5041211;28;20264;-77
2023/09/10 02:32:32;;;;;;;0.13;0.10;;;18.70;89.60;;;;;;5041270;28;20079;-77
2023/09/10 02:34:58;;;;;;;0.00;0.00;;;18.90;88.10;;;;;;5045530;28;20090;-77
2023/09/10 02:37:23;;;;;;;0.00;0.00;;;19.00;87.80;;;;;;5044053;28;20431;-78
2023/09/10 02:39:49;;;;;;;0.00;0.00;;;18.90;88.20;;;;;;5046038;28;20025;-77
2023/09/10 02:42:15;;;;;;;0.00;0.00;;;18.60;89.00;;;;;;5039556;28;20025;-78
2023/09/10 02:44:41;;;;;;;3.23;2.13;;;18.50;89.90;;;;;;5041933;28;20072;-78
2023/09/10 02:47:06;;;;;;;0.00;0.00;;;18.60;89.70;;;;;;5045562;28;20782;-77
2023/09/10 02:49:35;;;;;;;0.00;0.00;;;18.60;89.20;;;;;;5045442;28;20021;-77
2023/09/10 02:52:01;;;;;;;0.15;0.15;;;18.50;89.50;;;;;;5041483;28;20060;-78
2023/09/10 02:54:28;;;;;;;0.00;0.00;;;18.50;90.10;;;;;;5045147;28;20443;-77
2023/09/10 02:56:54;;;;;;;0.00;0.00;;;18.50;90.00;;;;;;5043664;28;20270;-77
2023/09/10 02:59:21;;;;;;;0.10;0.10;;;18.60;89.70;;;;;;5043532;28;20021;-78
2023/09/10 03:01:47;;;;;;;0.00;0.00;;;18.50;89.90;;;;;;5044852;28;20031;-77
2023/09/10 03:04:16;;;;;;;0.00;0.00;;;18.40;90.30;;;;;;5044831;28;20040;-77
2023/09/10 03:06:45;;;;;;;0.00;0.00;;;18.20;90.80;;;;;;5044768;28;20455;-78
2023/09/10 03:09:11;;;;;;;0.00;0.00;;;18.20;90.80;;;;;;5044722;28;20521;-78
2023/09/10 03:11:38;;;;;;;0.05;0.05;;;18.20;90.80;;;;;;5044360;28;20547;-78
2023/09/10 03:14:05;;;;;;;0.00;0.00;;;18.20;90.70;;;;;;5044273;28;20788;-78
2023/09/10 03:16:32;;;;;;;0.10;0.10;;;18.30;90.60;;;;;;5042803;28;20032;-77
2023/09/10 03:18:57;;;;;;;;;;;18.30;90.60;;;;;;5041241;28;20033;-78
2023/09/10 03:21:25;;;;;;;0.00;0.00;;;18.20;90.80;;;;;;5042457;28;19986;-78
2023/09/10 03:23:50;;;;;;;0.20;0.20;;;18.20;90.90;;;;;;5043180;28;20056;-78
2023/09/10 03:26:16;;;;;;;0.00;0.00;;;18.00;91.40;;;;;;5043705;28;20037;-78
2023/09/10 03:28:42;;;;;;;0.00;0.00;;;18.00;91.70;;;;;;5042723;28;20087;-78
2023/09/10 03:31:07;;;;;;;0.00;0.00;;;17.90;91.70;;;;;;5044278;28;20029;-77
2023/09/10 03:33:33;;;;;;;0.30;0.30;;;18.00;91.60;;;;;;5043830;28;20044;-78
2023/09/10 03:35:59;;;;;;;0.40;0.20;;;18.10;91.40;;;;;;5044094;28;20131;-77
2023/09/10 03:38:25;;;;;;;0.00;0.00;;;18.30;90.90;;;;;;5044228;28;20036;-77
2023/09/10 03:40:51;;;;;;;0.00;0.00;;;18.10;90.90;;;;;;5044353;28;20029;-78
2023/09/10 03:43:17;;;;;;;0.03;0.03;;;18.10;90.90;;;;;;5043813;28;20035;-78
2023/09/10 03:45:42;;;;;;;0.00;0.00;;;18.00;90.80;;;;;;5042998;28;20120;-77
2023/09/10 03:48:09;;;;;;;0.00;0.00;;;18.00;90.90;;;;;;5044094;28;20032;-77
2023/09/10 03:50:35;;;;;;;0.00;0.00;;;18.00;90.90;;;;;;5043730;28;20021;-77
2023/09/10 03:53:01;;;;;;;0.00;0.00;;;18.00;91.10;;;;;;5043396;28;20037;-77
2023/09/10 03:55:26;;;;;;;0.00;0.00;;;17.90;91.40;;;;;;5043753;28;20029;-77
2023/09/10 03:57:52;;;;;;;0.00;0.00;;;17.70;91.60;;;;;;5044398;28;20467;-77
2023/09/10 04:00:19;;;;;;;0.10;0.10;;;17.80;91.40;;;;;;5043576;28;20550;-77
2023/09/10 04:02:45;;;;;;;0.10;0.10;;;17.90;91.10;;;;;;5043941;28;20025;-78
2023/09/10 04:05:12;;;;;;;0.00;0.00;;;17.90;90.90;;;;;;5043260;28;20040;-76
2023/09/10 04:07:38;;;;;;;0.00;0.00;;;17.90;91.00;;;;;;5044167;28;20043;-76
2023/09/10 04:10:06;;;;;;;0.00;0.00;;;17.90;90.80;;;;;;5043432;28;20029;-76
2023/09/10 04:12:32;;;;;;;0.10;0.10;;;18.00;90.70;;;;;;5042018;28;20744;-77
2023/09/10 04:14:57;;;;;;;0.10;0.10;;;17.90;90.50;;;;;;5041933;28;20032;-77
2023/09/10 04:17:28;;;;;;;0.00;0.00;;;18.00;90.20;;;;;;5044041;28;20029;-77
2023/09/10 04:19:54;;;;;;;0.00;0.00;;;18.10;89.90;;;;;;5042836;28;20112;-77
2023/09/10 04:22:20;;;;;;;0.00;0.00;;;18.00;89.40;;;;;;5044212;28;20025;-77
2023/09/10 04:24:46;;;;;;;0.10;0.10;;;18.00;90.00;;;;;;5043362;28;20408;-77
2023/09/10 04:27:12;;;;;;;0.10;0.10;;;18.10;88.40;;;;;;5043880;28;20036;-77
2023/09/10 04:29:38;;;;;;;0.00;0.00;;;18.10;88.20;;;;;;5043137;28;20032;-76
2023/09/10 04:32:04;;;;;;;0.00;0.00;;;18.10;87.40;;;;;;5041048;28;20056;-77
2023/09/10 04:34:29;;;;;;;0.10;0.10;;;18.10;86.80;;;;;;5038852;28;20048;-78
2023/09/10 04:36:55;;;;;;;0.00;0.00;;;18.10;86.60;;;;;;5043315;28;20452;-79
2023/09/10 04:39:21;;;;;;;0.00;0.00;;;18.20;86.30;;;;;;5043055;28;20503;-76
2023/09/10 04:41:47;;;;;;;0.00;0.00;;;18.10;86.60;;;;;;5042745;28;20040;-76
2023/09/10 04:44:13;;;;;;;0.00;0.00;;;18.00;87.70;;;;;;5042930;28;20045;-77
2023/09/10 04:46:38;;;;;;;0.20;0.20;;;17.90;89.10;;;;;;5041609;28;20112;-77
2023/09/10 04:49:04;;;;;;;0.00;0.00;;;17.70;89.90;;;;;;5041822;28;20025;-77
2023/09/10 04:51:30;;;;;;;0.10;0.10;;;17.60;90.50;;;;;;5040861;28;20037;-77
2023/09/10 04:53:55;;;;;;;0.20;0.20;;;17.60;90.70;;;;;;5042325;28;20040;-77
2023/09/10 04:56:21;;;;;;;0.00;0.00;;;17.50;91.00;;;;;;5042163;28;20036;-77
2023/09/10 04:58:47;;;;;;;0.00;0.00;;;17.40;91.30;;;;;;5042306;28;20038;-76
2023/09/10 05:01:14;;;;;;;0.00;0.00;;;17.40;91.50;;;;;;5033152;28;20029;-76
2023/09/10 05:03:41;;;;;;;0.00;0.00;;;17.40;91.60;;;;;;5041474;28;20856;-77
2023/09/10 05:06:07;;;;;;;0.00;0.00;;;17.40;91.80;;;;;;5042303;28;20017;-76
2023/09/10 05:08:34;;;;;;;0.00;0.00;;;17.30;91.70;;;;;;5042569;28;20033;-76
2023/09/10 05:11:00;;;;;;;0.00;0.00;;;17.40;91.60;;;;;;5042497;28;20068;-76
2023/09/10 05:13:26;;;;;;;0.20;0.20;;;17.40;91.40;;;;;;5042559;28;20028;-81
2023/09/10 05:15:57;;;;;;;0.00;0.00;;;17.40;91.70;;;;;;5042438;28;20041;-81
2023/09/10 05:18:23;;;;;;;0.00;0.00;;;17.40;91.70;;;;;;5040611;28;20084;-83
2023/09/10 05:20:49;;;;;;;0.00;0.00;;;17.50;91.60;;;;;;5043040;28;20036;-83
2023/09/10 05:23:15;;;;;;;0.00;0.00;;;17.60;91.30;;;;;;5041827;28;20100;-81
2023/09/10 05:25:41;;;;;;;0.83;0.63;;;17.60;91.10;;;;;;5042492;28;20033;-82
2023/09/10 05:28:07;;;;;;;0.00;0.00;;;17.60;91.10;;;;;;5030408;28;20028;-84
2023/09/10 05:30:37;;;;;;;0.00;0.00;;;17.50;91.30;;;;;;5038870;28;20432;-84
2023/09/10 05:33:03;;;;;;;0.00;0.00;;;17.40;91.70;;;;;;5039921;28;20060;-83
2023/09/10 05:35:29;;;;;;;0.00;0.00;;;17.30;92.30;;;;;;5039624;28;20520;-84
2023/09/10 05:37:55;;;;;;;0.00;0.00;;;17.10;92.70;;;;;;5039101;28;20102;-82
2023/09/10 05:40:21;;;;;;;0.00;0.00;;;17.30;92.60;;;;;;5039052;28;20091;-85
2023/09/10 05:42:46;;;;;;;0.00;0.00;;;17.40;92.40;;;;;;5040498;28;20336;-82
2023/09/10 05:45:12;;;;;;;0.00;0.00;;;17.80;91.50;;;;;;5038181;28;20041;-83
2023/09/10 05:47:38;;;;;;;0.10;0.10;;;18.30;90.40;;;;;;5037683;28;20126;-82
2023/09/10 05:50:04;;;;;;;0.00;0.00;;;18.50;89.60;;;;;;5042040;28;20029;-82
2023/09/10 05:52:30;;;;;;;0.38;0.38;;;18.70;88.90;;;;;;5038008;28;20029;-82
2023/09/10 05:54:56;;;;;;;0.20;0.20;;;19.00;87.50;;;;;;5036510;28;20114;-80
2023/09/10 05:57:21;;;;;;;0.00;0.00;;;19.10;86.80;;;;;;5036845;28;20116;-83
2023/09/10 05:59:47;;;;;;;0.00;0.00;;;19.20;86.00;;;;;;5041124;28;20048;-75
2023/09/10 06:02:13;;;;;;;0.00;0.00;;;19.50;85.10;;;;;;5036477;28;20065;-76
2023/09/10 06:04:39;;;;;;;0.00;0.00;;;20.00;83.00;;;;;;5038819;28;20068;-77
2023/09/10 06:07:04;;;;;;;0.00;0.00;;;20.20;82.10;;;;;;5036334;28;20385;-77
2023/09/10 06:09:33;;;;;;;0.00;0.00;;;20.40;81.30;;;;;;5043027;28;20029;-76
2023/09/10 06:12:02;;;;;;;0.00;0.00;;;20.50;81.00;;;;;;5046202;28;20625;-78
2023/09/10 06:14:30;;;;;;;0.00;0.00;;;20.70;80.80;;;;;;5043745;28;20104;-76
2023/09/10 06:16:58;;;;;;;0.00;0.00;;;20.50;80.90;;;;;;5045663;28;20051;-79
2023/09/10 06:19:24;;;;;;;0.00;0.00;;;20.80;80.40;;;;;;5033922;28;20969;-78
2023/09/10 06:21:50;;;;;;;0.00;0.00;;;21.00;80.40;;;;;;5046189;28;20037;-79
2023/09/10 06:24:16;;;;;;;0.00;0.00;;;21.10;79.50;;;;;;5045659;28;20068;-77
2023/09/10 06:26:42;;;;;;;0.00;0.00;;;21.70;78.10;;;;;;5045589;28;20033;-80
2023/09/10 06:29:08;;;;;;;0.00;0.00;;;22.30;76.40;;;;;;5045366;28;20450;-78
2023/09/10 06:31:33;;;;;;;0.00;0.00;;;22.60;75.20;;;;;;5045948;28;20032;-77
2023/09/10 06:33:59;;;;;;;0.00;0.00;;;23.10;74.30;;;;;;5043880;28;20120;-78
2023/09/10 06:36:25;;;;;;;0.00;0.00;;;23.20;72.50;;;;;;5045887;28;20151;-80
2023/09/10 06:38:51;;;;;;;0.00;0.00;;;23.00;74.70;;;;;;5045963;28;20129;-81
2023/09/10 06:41:17;;;;;;;0.00;0.00;;;23.30;72.30;;;;;;5045554;28;20108;-76
2023/09/10 06:43:43;;;;;;;;;;;24.00;70.60;;;;;;5045721;28;20032;-79
2023/09/10 06:46:09;;;;;;;;;;;24.30;68.70;;;;;;5045614;28;19912;-78
2023/09/10 06:48:35;;;;;;;;;;;24.70;68.50;;;;;;5045753;28;19913;-77
2023/09/10 06:51:01;;;;;;;0.00;0.00;;;24.60;67.00;;;;;;5046262;28;20364;-79
2023/09/10 06:53:28;;;;;;;0.08;0.08;;;24.40;67.60;;;;;;5045165;28;20037;-77
2023/09/10 06:55:54;;;;;;;0.00;0.00;;;24.70;66.30;;;;;;5045646;28;20021;-76
2023/09/10 06:58:20;;;;;;;0.00;0.00;;;25.00;66.60;;;;;;5045634;28;20094;-79
2023/09/10 07:00:46;;;;;;;0.00;0.00;;;26.00;66.20;;;;;;5045440;28;20025;-81
2023/09/10 07:03:13;;;;;;;0.00;0.00;;;25.90;62.80;;;;;;5045157;28;20036;-78
2023/09/10 07:05:40;;;;;;;0.10;0.10;;;25.60;62.50;;;;;;5046051;28;20061;-77
2023/09/10 07:08:07;;;;;;;0.00;0.00;;;25.70;62.60;;;;;;5044947;28;20025;-77
2023/09/10 07:10:33;;;;;;;0.00;0.00;;;25.70;62.20;;;;;;5045167;28;20024;-77
2023/09/10 07:13:01;;;;;;;0.00;0.00;;;25.70;61.80;;;;;;5044973;28;20048;-80
2023/09/10 07:15:27;;;;;;;0.00;0.00;;;26.50;60.00;;;;;;5044783;28;20083;-77
2023/09/10 07:17:53;;;;;;;0.00;0.00;;;27.00;59.40;;;;;;5044725;28;20025;-78
2023/09/10 07:20:18;;;;;;;0.00;0.00;;;27.20;57.60;;;;;;5045319;28;20087;-78
2023/09/10 07:22:44;;;;;;;0.00;0.00;;;27.80;57.70;;;;;;5044960;28;20067;-80
2023/09/10 07:25:10;;;;;;;0.10;0.10;;;28.00;56.20;;;;;;5044922;28;20043;-80
2023/09/10 07:27:36;;;;;;;1.25;0.65;;;27.70;55.70;;;;;;5044483;28;20104;-78
2023/09/10 07:30:03;;;;;;;0.00;0.00;;;27.80;56.40;;;;;;5044372;28;20585;-80
2023/09/10 07:32:28;;;;;;;0.00;0.00;;;28.50;55.10;;;;;;5048033;28;21009;-77
2023/09/10 07:34:54;;;;;;;1.92;1.65;;;28.10;55.10;;;;;;5044447;28;20113;-78
2023/09/10 07:37:20;;;;;;;0.00;0.00;;;28.20;54.70;;;;;;5044546;28;20056;-78
2023/09/10 07:39:45;;;;;;;0.00;0.00;;;28.00;54.30;;;;;;5044481;28;20082;-79
2023/09/10 07:42:11;;;;;;;0.00;0.00;;;28.30;53.30;;;;;;5044737;28;20044;-79
2023/09/10 07:44:37;;;;;;;0.00;0.00;;;28.40;53.30;;;;;;5044917;28;20033;-84
2023/09/10 07:47:03;;;;;;;0.00;0.00;;;28.90;54.00;;;;;;5044352;28;20692;-81
2023/09/10 07:49:28;;;;;;;0.00;0.00;;;28.70;52.00;;;;;;5044361;28;20108;-78
2023/09/10 07:51:54;;;;;;;0.00;0.00;;;29.20;52.10;;;;;;5044489;28;20071;-80
2023/09/10 07:54:20;;;;;;;0.43;0.43;;;30.10;51.90;;;;;;5044145;28;20458;-78
2023/09/10 07:56:46;;;;;;;0.00;0.00;;;30.50;49.40;;;;;;5045078;28;20017;-77
2023/09/10 07:59:12;;;;;;;;;;;31.30;48.30;;;;;;5045424;28;20036;-79
2023/09/10 08:01:38;;;;;;;0.00;0.00;;;31.80;48.90;;;;;;5044462;28;19911;-78
2023/09/10 08:04:04;;;;;;;0.00;0.00;;;32.30;47.60;;;;;;5044626;28;20124;-80
2023/09/10 08:06:30;;;;;;;0.00;0.00;;;32.50;48.00;;;;;;5044284;28;20025;-76
2023/09/10 08:08:56;;;;;;;;;;;32.60;49.00;;;;;;5043587;28;20033;-78
2023/09/10 08:11:22;;;;;;;0.00;0.00;;;32.50;47.30;;;;;;5042084;28;19915;-81
2023/09/10 08:13:47;;;;;;;;;;;32.20;47.40;;;;;;5044686;28;20025;-76
2023/09/10 08:16:14;;;;;;;0.00;0.00;;;32.90;48.40;;;;;;5043791;28;19911;-78
2023/09/10 08:18:41;;;;;;;0.00;0.00;;;33.40;46.70;;;;;;5041393;28;20132;-78
2023/09/10 08:21:06;;;;;;;0.00;0.00;;;33.10;46.90;;;;;;5041964;28;20155;-76
2023/09/10 08:23:32;;;;;;;;;;;33.50;47.00;;;;;;5043995;28;20142;-77
2023/09/10 08:25:58;;;;;;;0.00;0.00;;;33.60;46.30;;;;;;5043761;28;20402;-76
2023/09/10 08:28:23;;;;;;;0.00;0.00;;;33.40;45.80;;;;;;5043554;28;20478;-79
2023/09/10 08:30:49;;;;;;;0.00;0.00;;;33.90;46.20;;;;;;5042746;28;20346;-77
2023/09/10 08:33:15;;;;;;;0.00;0.00;;;34.60;44.70;;;;;;5043016;28;20072;-79
2023/09/10 08:35:46;;;;;;;0.00;0.00;;;34.70;46.20;;;;;;5042912;28;20063;-78
2023/09/10 08:38:12;;;;;;;0.00;0.00;;;34.90;44.40;;;;;;5044135;28;20124;-79
2023/09/10 08:40:57;;;;;;;0.00;0.00;;;35.10;43.20;;;;;;5043414;28;20049;-78
2023/09/10 08:43:40;;;;;;;0.00;0.00;;;35.90;41.70;;;;;;5043169;28;20078;-79
2023/09/10 08:46:09;;;;;;;0.00;0.00;;;35.50;41.80;;;;;;5042932;28;20098;-77
2023/09/10 08:48:39;;;;;;;0.00;0.00;;;35.70;41.00;;;;;;5043494;28;20021;-80
2023/09/10 08:51:05;;;;;;;0.00;0.00;;;35.40;41.80;;;;;;5042715;28;20029;-82
2023/09/10 08:53:33;;;;;;;0.00;0.00;;;35.40;41.90;;;;;;5043083;28;20033;-78
2023/09/10 08:55:59;;;;;;;0.00;0.00;;;36.40;42.50;;;;;;5043344;28;20028;-77
2023/09/10 08:58:26;;;;;;;0.00;0.00;;;36.10;42.10;;;;;;5043112;28;20025;-80
2023/09/10 09:00:53;;;;;;;0.00;0.00;;;35.50;39.70;;;;;;5042813;28;20029;-81
2023/09/10 09:03:20;;;;;;;0.43;0.43;;;36.10;40.60;;;;;;5043064;28;20025;-78
2023/09/10 09:05:48;;;;;;;0.00;0.00;;;35.90;38.70;;;;;;5043424;28;20028;-82
2023/09/10 09:08:16;;;;;;;0.00;0.00;;;36.00;38.60;;;;;;5042652;28;20022;-78
2023/09/10 09:10:44;;;;;;;0.00;0.00;;;36.10;37.80;;;;;;5042833;28;20043;-77
2023/09/10 09:13:12;;;;;;;0.00;0.00;;;36.90;36.70;;;;;;5041800;28;20033;-81
2023/09/10 09:15:39;;;;;;;0.00;0.00;;;35.60;35.90;;;;;;5043227;28;20025;-76
2023/09/10 09:18:08;;;;;;;0.00;0.00;;;35.30;37.30;;;;;;5042552;28;20025;-80
2023/09/10 09:20:36;;;;;;;0.00;0.00;;;36.00;35.80;;;;;;5040635;28;20029;-79
2023/09/10 09:23:12;;;;;;;0.00;0.00;;;36.50;35.00;;;;;;5042748;28;20025;-80
2023/09/10 09:25:38;;;;;;;0.00;0.00;;;36.40;34.90;;;;;;5042431;28;20029;-79
2023/09/10 09:28:04;;;;;;;;;;;37.00;35.20;;;;;;5043120;28;20032;-81
2023/09/10 09:30:30;;;;;;;0.00;0.00;;;37.40;35.80;;;;;;5042587;28;19953;-80
2023/09/10 09:32:56;;;;;;;;;;;34.80;34.80;;;;;;5043215;28;20029;-77
2023/09/10 09:35:22;;;;;;;6.22;5.82;;;35.40;35.70;;;;;;5042549;28;19936;-79
2023/09/10 09:37:47;;;;;;;;;;;36.80;34.20;;;;;;5043335;28;20033;-78
2023/09/10 09:40:13;;;;;;;0.00;0.00;;;36.90;34.80;;;;;;5042193;28;19905;-79
2023/09/10 09:42:39;;;;;;;;;;;37.50;34.20;;;;;;5041991;28;20021;-77
2023/09/10 09:45:05;;;;;;;0.00;0.00;;;37.90;33.70;;;;;;5041213;28;19916;-81
2023/09/10 09:47:31;;;;;;;0.00;0.00;;;37.60;33.90;;;;;;5041925;28;20028;-77
2023/09/10 09:49:58;;;;;;;0.00;0.00;;;38.10;34.10;;;;;;5040913;28;20021;-81
2023/09/10 09:52:24;;;;;;;0.00;0.00;;;37.70;32.60;;;;;;5045839;28;20025;-77
2023/09/10 09:54:50;;;;;;;0.00;0.00;;;37.80;34.00;;;;;;5047172;28;20025;-80
2023/09/10 09:57:19;;;;;;;0.00;0.00;;;37.40;32.60;;;;;;5042396;28;20021;-79
2023/09/10 09:59:44;;;;;;;0.00;0.00;;;37.10;33.50;;;;;;5041995;28;20388;-80
2023/09/10 10:02:15;;;;;;;0.00;0.00;;;36.80;33.40;;;;;;5041790;28;20079;-81
2023/09/10 10:04:42;;;;;;;0.00;0.00;;;36.70;33.40;;;;;;5042120;28;20072;-77
2023/09/10 10:07:09;;;;;;;0.00;0.00;;;35.90;33.10;;;;;;5042656;28;20029;-79
2023/09/10 10:09:40;;;;;;;0.00;0.00;;;35.30;34.70;;;;;;5041778;28;20107;-81
2023/09/10 10:12:07;;;;;;;0.00;0.00;;;34.40;34.90;;;;;;5039674;28;20091;-79
2023/09/10 10:14:34;;;;;;;0.00;0.00;;;33.90;35.60;;;;;;5037810;28;20033;-78
2023/09/10 10:17:01;;;;;;;0.00;0.00;;;33.70;36.10;;;;;;5039157;28;20017;-79
2023/09/10 10:19:31;;;;;;;0.00;0.00;;;33.30;37.60;;;;;;5037081;28;20132;-75
2023/09/10 10:21:58;;;;;;;0.00;0.00;;;32.80;37.30;;;;;;5039084;28;20024;-75
2023/09/10 10:24:24;;;;;;;0.00;0.00;;;32.60;37.50;;;;;;5040150;28;20045;-76
2023/09/10 10:26:51;;;;;;;;;;;32.70;38.50;;;;;;5047324;28;20029;-79
2023/09/10 10:29:21;;;;;;;0.00;0.00;;;32.70;37.50;;;;;;5044698;28;19916;-79
2023/09/10 10:32:14;;;;;;;0.00;0.00;;;32.20;38.60;;;;;;5038807;28;20025;-77
2023/09/10 10:34:49;;;;;;;0.00;0.00;;;32.00;38.10;;;;;;5026533;28;20053;-81
2023/09/10 10:37:44;;;;;;;0.00;0.00;;;32.20;37.80;;;;;;5040144;28;20558;-80
2023/09/10 10:40:13;;;;;;;0.00;0.00;;;31.30;38.30;;;;;;5034149;28;20025;-79
2023/09/10 10:42:54;;;;;;;0.00;0.00;;;31.70;39.70;;;;;;5039237;28;20099;-77
2023/09/10 10:45:21;;;;;;;0.00;0.00;;;31.80;39.60;;;;;;5035834;28;20073;-78
2023/09/10 10:47:48;;;;;;;0.00;0.00;;;31.50;39.30;;;;;;5038692;28;20028;-79
2023/09/10 10:50:24;;;;;;;0.17;0.17;;;31.80;39.50;;;;;;5033045;28;20017;-79
2023/09/10 10:52:59;;;;;;;0.00;0.00;;;31.70;40.90;;;;;;5037736;28;20037;-77
2023/09/10 10:55:26;;;;;;;0.00;0.00;;;31.60;40.70;;;;;;5042705;28;20500;-77
2023/09/10 10:57:55;;;;;;;0.00;0.00;;;31.10;40.50;;;;;;5054144;28;20120;-77
2023/09/10 11:00:22;;;;;;;0.00;0.00;;;31.00;39.90;;;;;;5042509;28;20060;-80
2023/09/10 11:03:14;;;;;;;0.00;0.00;;;31.00;41.30;;;;;;5040837;28;20033;-80
2023/09/10 11:05:52;;;;;;;0.00;0.00;;;31.30;40.50;;;;;;5033129;28;20049;-78
2023/09/10 11:08:30;;;;;;;0.00;0.00;;;30.90;39.60;;;;;;5039790;28;20142;-76
2023/09/10 11:10:56;;;;;;;0.00;0.00;;;30.60;40.10;;;;;;5043063;28;20040;-77
2023/09/10 11:13:23;;;;;;;0.00;0.00;;;30.50;40.90;;;;;;5043271;28;20025;-79
2023/09/10 11:16:04;;;;;;;0.00;0.00;;;30.60;41.10;;;;;;5044185;28;20113;-78
2023/09/10 11:18:38;;;;;;;0.00;0.00;;;30.20;41.00;;;;;;5042497;28;20054;-77
2023/09/10 11:21:10;;;;;;;0.00;0.00;;;30.40;41.00;;;;;;5033879;28;20522;-78
2023/09/10 11:23:40;;;;;;;0.00;0.00;;;30.50;42.10;;;;;;5042183;28;20393;-81
2023/09/10 11:26:28;;;;;;;0.00;0.00;;;30.50;41.20;;;;;;5042047;28;20017;-77
2023/09/10 11:28:55;;;;;;;0.00;0.00;;;30.40;40.80;;;;;;5040683;28;20033;-81
2023/09/10 11:31:37;;;;;;;0.00;0.00;;;30.10;41.00;;;;;;5042139;28;20793;-79
2023/09/10 11:34:17;;;;;;;0.00;0.00;;;30.00;40.80;;;;;;5042904;28;20028;-76
2023/09/10 11:36:51;;;;;;;0.00;0.00;;;29.90;40.90;;;;;;5044388;28;20119;-80
2023/09/10 11:39:19;;;;;;;0.00;0.00;;;29.90;41.80;;;;;;5041284;28;20029;-78
2023/09/10 11:41:49;;;;;;;0.00;0.00;;;29.80;41.60;;;;;;5042639;28;20124;-77
2023/09/10 11:44:15;;;;;;;0.00;0.00;;;29.90;41.90;;;;;;5031674;28;20046;-76
2023/09/10 11:46:41;;;;;;;0.00;0.00;;;29.60;41.50;;;;;;5038941;28;20756;-77
2023/09/10 11:49:07;;;;;;;0.00;0.00;;;29.70;42.20;;;;;;5042170;28;20469;-75
2023/09/10 11:51:40;;;;;;;0.00;0.00;;;29.70;42.50;;;;;;5043535;28;20087;-76
2023/09/10 11:54:06;;;;;;;0.00;0.00;;;29.60;42.00;;;;;;5044248;28;20477;-75
2023/09/10 11:56:33;;;;;;;0.00;0.00;;;29.70;43.10;;;;;;5043580;28;20483;-76
2023/09/10 11:58:59;;;;;;;0.00;0.00;;;29.80;42.80;;;;;;5043964;28;20029;-76
2023/09/10 12:01:25;;;;;;;0.00;0.00;;;29.80;42.30;;;;;;5043635;28;20079;-76
2023/09/10 12:03:50;;;;;;;0.00;0.00;;;29.90;43.00;;;;;;5043801;28;20500;-76
2023/09/10 12:06:16;;;;;;;0.00;0.00;;;29.90;43.90;;;;;;5044423;28;20112;-76
2023/09/10 12:08:43;;;;;;;0.00;0.00;;;29.80;43.10;;;;;;5043786;28;20036;-76
2023/09/10 12:11:11;;;;;;;0.00;0.00;;;29.70;42.10;;;;;;5043671;28;20033;-75
2023/09/10 12:13:38;;;;;;;0.00;0.00;;;29.80;42.50;;;;;;5043772;28;20436;-77
2023/09/10 12:16:04;;;;;;;0.00;0.00;;;29.70;42.10;;;;;;5043666;28;20668;-77
2023/09/10 12:18:31;;;;;;;0.00;0.00;;;29.70;41.60;;;;;;5043537;28;20064;-75
2023/09/10 12:21:00;;;;;;;0.00;0.00;;;29.60;42.70;;;;;;5043622;28;20069;-75
2023/09/10 12:23:26;;;;;;;0.10;0.10;;;29.30;41.90;;;;;;5043443;28;20025;-75
2023/09/10 12:25:55;;;;;;;;;;;29.10;42.40;;;;;;5044422;28;20075;-77
2023/09/10 12:28:21;;;;;;;0.00;0.00;;;29.30;43.90;;;;;;5043547;28;19999;-76
2023/09/10 12:30:47;;;;;;;0.35;0.13;;;29.80;43.90;;;;;;5043652;28;20027;-76
2023/09/10 12:33:14;;;;;;;0.00;0.00;;;30.30;41.50;;;;;;5042952;28;20037;-77
2023/09/10 12:35:40;;;;;;;0.00;0.00;;;30.20;41.90;;;;;;5043021;28;20946;-77
2023/09/10 12:38:05;;;;;;;0.00;0.00;;;30.00;40.60;;;;;;5043686;28;20055;-75
2023/09/10 12:40:31;;;;;;;0.00;0.00;;;29.90;40.90;;;;;;5044177;28;20043;-75
2023/09/10 12:42:57;;;;;;;0.00;0.00;;;30.10;41.90;;;;;;5043817;28;20036;-76
2023/09/10 12:45:23;;;;;;;0.00;0.00;;;30.10;40.00;;;;;;5045122;28;20048;-76
2023/09/10 12:47:49;;;;;;;0.00;0.00;;;30.20;41.80;;;;;;5043059;28;20025;-76
2023/09/10 12:50:15;;;;;;;0.00;0.00;;;30.10;41.40;;;;;;5043904;28;20029;-77
2023/09/10 12:52:41;;;;;;;;;;;30.10;42.50;;;;;;5043885;28;20140;-75